createdAt,value
2023-03-13T00:02:08.574Z,94732.69
2023-03-13T00:04:55.408Z,94732.69
2023-03-13T00:07:28.446Z,94731.81
2023-03-13T00:10:15.342Z,94736.03
2023-03-13T00:12:51.287Z,94736.84
2023-03-13T00:15:38.373Z,94735.16
2023-03-13T00:18:11.631Z,94737.69
2023-03-13T00:21:08.452Z,94735.19
2023-03-13T00:23:44.568Z,94744.44
2023-03-13T00:26:33.534Z,94729.38
2023-03-13T00:29:14.605Z,94728.56
2023-03-13T00:32:08.448Z,94716.00
2023-03-13T00:35:02.409Z,94696.69
2023-03-13T00:37:56.543Z,94704.25
2023-03-13T00:40:50.381Z,94700.09
2023-03-13T00:43:37.400Z,94706.84
2023-03-13T00:46:18.410Z,94725.34
2023-03-13T00:49:05.323Z,94732.09
2023-03-13T00:51:38.573Z,94722.03
2023-03-13T00:54:25.360Z,94717.84
2023-03-13T00:57:05.567Z,94710.28
2023-03-13T00:59:52.406Z,94704.44
2023-03-13T01:02:32.480Z,94700.25
2023-03-13T01:05:27.373Z,94703.63
2023-03-13T01:08:14.378Z,94694.41
2023-03-13T01:10:49.467Z,94691.06
2023-03-13T01:13:37.346Z,94686.03
2023-03-13T01:16:19.627Z,94678.50
2023-03-13T01:19:12.529Z,94673.47
2023-03-13T01:21:47.522Z,94670.13
2023-03-13T01:24:34.413Z,94661.75
2023-03-13T01:27:14.377Z,94661.75
2023-03-13T01:30:08.381Z,94665.94
2023-03-13T01:32:55.565Z,94662.59
2023-03-13T01:35:28.492Z,94661.75
2023-03-13T01:38:16.402Z,94661.75
2023-03-13T01:40:55.544Z,94664.25
2023-03-13T01:43:43.532Z,94667.66
2023-03-13T01:46:20.028Z,94669.31
2023-03-13T01:49:32.526Z,94671.00
2023-03-13T01:52:13.544Z,94662.63
2023-03-13T01:55:15.390Z,94672.75
2023-03-13T01:57:54.559Z,94667.69
2023-03-13T02:00:43.391Z,94668.56
2023-03-13T02:03:30.382Z,94662.72
2023-03-13T02:06:24.386Z,94662.78
2023-03-13T02:09:25.397Z,94672.00
2023-03-13T02:12:21.526Z,94669.50
2023-03-13T02:15:15.406Z,94675.41
2023-03-13T02:17:49.524Z,94679.59
2023-03-13T02:20:36.375Z,94680.47
2023-03-13T02:23:35.379Z,94680.47
2023-03-13T02:26:29.424Z,94684.69
2023-03-13T02:29:24.391Z,94696.47
2023-03-13T02:32:00.476Z,94697.34
2023-03-13T02:34:50.398Z,94702.38
2023-03-13T02:37:25.498Z,94698.19
2023-03-13T02:40:18.375Z,94699.91
2023-03-13T02:42:52.481Z,94709.16
2023-03-13T02:45:39.397Z,94721.81
2023-03-13T02:48:12.491Z,94719.28
2023-03-13T02:51:06.424Z,94701.66
2023-03-13T02:53:57.404Z,94708.41
2023-03-13T02:56:33.544Z,94717.69
2023-03-13T02:59:20.393Z,94710.97
2023-03-13T03:02:00.423Z,94713.53
2023-03-13T03:04:47.398Z,94716.09
2023-03-13T03:07:27.415Z,94720.31
2023-03-13T03:10:21.413Z,94722.81
2023-03-13T03:13:08.424Z,94721.19
2023-03-13T03:15:41.534Z,94720.34
2023-03-13T03:18:28.439Z,94727.91
2023-03-13T03:21:01.513Z,94728.78
2023-03-13T03:23:48.413Z,94735.53
2023-03-13T03:26:21.506Z,94745.63
2023-03-13T03:29:08.415Z,94755.75
2023-03-13T03:31:41.513Z,94754.94
2023-03-13T03:34:28.433Z,94764.19
2023-03-13T03:37:08.395Z,94758.31
2023-03-13T03:39:55.428Z,94762.56
2023-03-13T03:42:28.495Z,94765.09
2023-03-13T03:45:15.389Z,94768.47
2023-03-13T03:47:48.528Z,94769.34
2023-03-13T03:50:42.410Z,94767.69
2023-03-13T03:53:36.416Z,94771.91
2023-03-13T03:56:23.414Z,94769.38
2023-03-13T03:59:03.438Z,94772.78
2023-03-13T04:01:50.460Z,94759.31
2023-03-13T04:04:30.420Z,94759.31
2023-03-13T04:07:24.419Z,94763.56
2023-03-13T04:10:18.421Z,94764.38
2023-03-13T04:13:05.438Z,94765.22
2023-03-13T04:15:38.519Z,94769.47
2023-03-13T04:18:25.448Z,94762.72
2023-03-13T04:21:07.530Z,94764.44
2023-03-13T04:23:54.428Z,94772.00
2023-03-13T04:26:34.475Z,94770.31
2023-03-13T04:29:28.427Z,94777.03
2023-03-13T04:32:15.460Z,94780.44
2023-03-13T04:34:48.526Z,94777.09
2023-03-13T04:37:35.564Z,94772.03
2023-03-13T04:40:09.081Z,94777.13
2023-03-13T04:42:55.438Z,94785.53
2023-03-13T04:45:28.541Z,94793.97
2023-03-13T04:48:15.445Z,94793.16
2023-03-13T04:50:48.694Z,94792.31
2023-03-13T04:53:35.429Z,94794.84
2023-03-13T04:56:08.527Z,94787.25
2023-03-13T04:58:55.444Z,94791.47
2023-03-13T05:01:28.596Z,94781.38
2023-03-13T05:04:16.464Z,94780.53
2023-03-13T05:06:49.547Z,94792.31
2023-03-13T05:09:36.427Z,94803.28
2023-03-13T05:12:09.547Z,94794.00
2023-03-13T05:14:56.436Z,94802.44
2023-03-13T05:17:36.467Z,94801.59
2023-03-13T05:20:30.447Z,94805.00
2023-03-13T05:23:17.481Z,94801.66
2023-03-13T05:25:50.543Z,94804.19
2023-03-13T05:28:37.465Z,94813.47
2023-03-13T05:31:17.532Z,94814.34
2023-03-13T05:34:04.484Z,94810.97
2023-03-13T05:36:37.571Z,94795.00
2023-03-13T05:39:24.466Z,94804.28
2023-03-13T05:42:04.500Z,94807.69
2023-03-13T05:44:58.466Z,94815.31
2023-03-13T05:47:52.468Z,94811.09
2023-03-13T05:50:46.471Z,94812.00
2023-03-13T05:53:40.469Z,94812.84
2023-03-13T05:56:27.482Z,94815.44
2023-03-13T05:59:00.565Z,94814.56
2023-03-13T06:01:47.468Z,94817.16
2023-03-13T06:04:27.696Z,94823.91
2023-03-13T06:07:21.458Z,94820.59
2023-03-13T06:10:15.461Z,94824.81
2023-03-13T06:13:17.240Z,94839.13
2023-03-13T06:16:00.575Z,94838.31
2023-03-13T06:18:47.475Z,94834.97
2023-03-13T06:21:20.562Z,94838.38
2023-03-13T06:24:07.464Z,94835.84
2023-03-13T06:26:49.583Z,94835.88
2023-03-13T06:29:43.488Z,94838.41
2023-03-13T06:32:30.604Z,94839.25
2023-03-13T06:35:11.449Z,94837.59
2023-03-13T06:37:58.468Z,94840.97
2023-03-13T06:40:38.493Z,94835.09
2023-03-13T06:43:25.475Z,94842.75
2023-03-13T06:46:05.510Z,94840.25
2023-03-13T06:48:59.445Z,94843.66
2023-03-13T06:51:53.489Z,94850.41
2023-03-13T06:54:40.489Z,94852.97
2023-03-13T06:57:20.483Z,94840.34
2023-03-13T07:00:14.477Z,94842.91
2023-03-13T07:03:01.511Z,94844.59
2023-03-13T07:05:34.618Z,94840.41
2023-03-13T07:08:21.508Z,94845.53
2023-03-13T07:11:01.497Z,94844.69
2023-03-13T07:13:48.492Z,94835.44
2023-03-13T07:16:21.682Z,94837.16
2023-03-13T07:19:08.484Z,94840.59
2023-03-13T07:21:41.633Z,94837.25
2023-03-13T07:24:28.512Z,94822.97
2023-03-13T07:27:07.307Z,94823.84
2023-03-13T07:29:54.512Z,94815.44
2023-03-13T07:32:27.594Z,94813.78
2023-03-13T07:35:14.516Z,94807.09
2023-03-13T07:37:47.587Z,94805.47
2023-03-13T07:40:34.504Z,94802.13
2023-03-13T07:43:07.602Z,94792.84
2023-03-13T07:46:02.591Z,94793.66
2023-03-13T07:48:48.510Z,94796.19
2023-03-13T07:51:45.761Z,94790.28
2023-03-13T07:54:32.521Z,94791.09
2023-03-13T07:57:05.723Z,94788.53
2023-03-13T07:59:52.597Z,94776.63
2023-03-13T08:02:25.692Z,94765.59
2023-03-13T08:05:12.509Z,94760.50
2023-03-13T08:07:45.633Z,94756.19
2023-03-13T08:10:32.507Z,94748.53
2023-03-13T08:13:05.713Z,94743.44
2023-03-13T08:15:52.517Z,94746.81
2023-03-13T08:18:32.505Z,94731.56
2023-03-13T08:21:24.521Z,94737.47
2023-03-13T08:24:13.528Z,94727.31
2023-03-13T08:27:07.536Z,94724.72
2023-03-13T08:30:01.540Z,94717.03
2023-03-13T08:32:48.590Z,94728.00
2023-03-13T08:35:21.692Z,94731.34
2023-03-13T08:38:09.515Z,94730.31
2023-03-13T08:40:49.533Z,94726.78
2023-03-13T08:43:36.508Z,94716.53
2023-03-13T08:46:10.663Z,94708.75
2023-03-13T08:48:58.560Z,94702.53
2023-03-13T08:51:41.551Z,94694.59
2023-03-13T08:54:28.597Z,94703.50
2023-03-13T08:57:01.628Z,94698.00
2023-03-13T08:59:48.531Z,94693.41
2023-03-13T09:02:28.598Z,94701.56
2023-03-13T09:05:22.556Z,94694.31
2023-03-13T09:08:09.524Z,94685.78
2023-03-13T09:10:42.649Z,94691.78
2023-03-13T09:13:30.577Z,94689.03
2023-03-13T09:16:28.691Z,94688.59
2023-03-13T09:19:15.575Z,94701.06
2023-03-13T09:21:49.370Z,94688.88
2023-03-13T09:24:36.552Z,94700.72
2023-03-13T09:27:09.692Z,94698.63
2023-03-13T09:29:56.527Z,94696.59
2023-03-13T09:32:29.770Z,94680.81
2023-03-13T09:35:16.570Z,94674.47
2023-03-13T09:37:49.675Z,94669.16
2023-03-13T09:40:36.563Z,94666.44
2023-03-13T09:43:09.627Z,94661.41
2023-03-13T09:45:59.643Z,94663.19
2023-03-13T09:48:46.551Z,94654.66
2023-03-13T09:51:46.574Z,94646.13
2023-03-13T09:54:52.561Z,94641.22
2023-03-13T09:58:03.583Z,94636.22
2023-03-13T10:00:55.555Z,94640.47
2023-03-13T10:03:45.685Z,94646.66
2023-03-13T10:06:36.558Z,94632.19
2023-03-13T10:09:16.602Z,94636.31
2023-03-13T10:12:25.576Z,94629.53
2023-03-13T10:15:30.548Z,94622.81
2023-03-13T10:18:05.680Z,94617.63
2023-03-13T10:20:54.572Z,94617.59
2023-03-13T10:23:45.716Z,94609.84
2023-03-13T10:26:36.603Z,94601.28
2023-03-13T10:29:35.588Z,94592.63
2023-03-13T10:32:30.593Z,94597.72
2023-03-13T10:35:26.610Z,94590.84
2023-03-13T10:38:09.679Z,94590.97
2023-03-13T10:41:24.557Z,94589.41
2023-03-13T10:43:59.748Z,94583.28
2023-03-13T10:46:52.641Z,94585.84
2023-03-13T10:49:29.779Z,94585.72
2023-03-13T10:52:57.581Z,94583.22
2023-03-13T10:55:57.599Z,94576.34
2023-03-13T10:58:53.599Z,94578.06
2023-03-13T11:01:51.619Z,94577.88
2023-03-13T11:04:47.588Z,94568.28
2023-03-13T11:07:48.576Z,94576.66
2023-03-13T11:10:36.600Z,94575.75
2023-03-13T11:13:19.955Z,94573.88
2023-03-13T11:16:33.642Z,94569.78
2023-03-13T11:19:20.604Z,94570.63
2023-03-13T11:22:05.791Z,94568.81
2023-03-13T11:25:17.858Z,94558.56
2023-03-13T11:28:14.708Z,94551.66
2023-03-13T11:31:24.669Z,94547.28
2023-03-13T11:34:25.622Z,94538.63
2023-03-13T11:37:18.606Z,94530.84
2023-03-13T11:40:45.595Z,94519.81
2023-03-13T11:43:32.596Z,94532.41
2023-03-13T11:46:35.815Z,94529.53
2023-03-13T11:49:22.655Z,94519.41
2023-03-13T11:52:22.613Z,94525.09
2023-03-13T11:55:45.629Z,94523.00
2023-03-13T11:58:54.629Z,94509.91
2023-03-13T12:01:48.648Z,94509.97
2023-03-13T12:04:43.901Z,94494.75
2023-03-13T12:07:36.645Z,94499.19
2023-03-13T12:10:16.730Z,94492.25
2023-03-13T12:13:20.640Z,94487.00
2023-03-13T12:16:05.654Z,94472.22
2023-03-13T12:19:00.617Z,94472.22
2023-03-13T12:21:56.702Z,94466.97
2023-03-13T12:24:34.729Z,94465.25
2023-03-13T12:27:27.640Z,94461.06
2023-03-13T12:30:12.818Z,94473.16
2023-03-13T12:33:25.643Z,94479.38
2023-03-13T12:36:25.655Z,94474.50
2023-03-13T12:39:33.654Z,94478.09
2023-03-13T12:42:31.843Z,94483.38
2023-03-13T12:45:24.767Z,94481.78
2023-03-13T12:48:30.692Z,94493.91
2023-03-13T12:51:42.630Z,94503.44
2023-03-13T12:54:41.649Z,94490.94
2023-03-13T12:57:59.681Z,94487.66
2023-03-13T13:00:57.673Z,94474.22
2023-03-13T13:03:55.701Z,94470.16
2023-03-13T13:06:29.752Z,94465.06
2023-03-13T13:09:26.649Z,94471.06
2023-03-13T13:12:01.885Z,94464.25
2023-03-13T13:14:54.665Z,94465.97
2023-03-13T13:17:27.781Z,94466.19
2023-03-13T13:20:45.741Z,94459.66
2023-03-13T13:23:41.645Z,94451.16
2023-03-13T13:27:00.711Z,94461.63
2023-03-13T13:29:47.668Z,94462.56
2023-03-13T13:32:28.687Z,94460.97
2023-03-13T13:35:18.660Z,94457.59
2023-03-13T13:37:59.674Z,94454.34
2023-03-13T13:40:53.668Z,94447.63
2023-03-13T13:43:54.815Z,94458.56
2023-03-13T13:46:39.767Z,94449.38
2023-03-13T13:49:28.666Z,94453.75
2023-03-13T13:52:10.780Z,94451.31
2023-03-13T13:55:03.671Z,94447.88
2023-03-13T13:57:44.113Z,94454.78
2023-03-13T14:00:33.697Z,94454.22
2023-03-13T14:03:06.771Z,94461.88
2023-03-13T14:05:58.693Z,94471.22
2023-03-13T14:08:37.182Z,94475.63
2023-03-13T14:11:43.681Z,94471.56
2023-03-13T14:14:30.683Z,94481.44
2023-03-13T14:17:17.698Z,94471.41
2023-03-13T14:19:50.796Z,94460.53
2023-03-13T14:22:52.669Z,94462.50
2023-03-13T14:25:34.738Z,94467.66
2023-03-13T14:28:46.702Z,94454.22
2023-03-13T14:31:33.735Z,94445.75
2023-03-13T14:34:17.649Z,94443.06
2023-03-13T14:37:17.544Z,94443.41
2023-03-13T14:39:52.817Z,94456.28
2023-03-13T14:42:46.675Z,94445.28
2023-03-13T14:45:25.867Z,94448.84
2023-03-13T14:48:21.691Z,94442.19
2023-03-13T14:51:08.876Z,94448.16
2023-03-13T14:54:15.684Z,94452.59
2023-03-13T14:57:15.731Z,94437.44
2023-03-13T14:59:49.860Z,94445.09
2023-03-13T15:02:38.722Z,94457.03
2023-03-13T15:05:14.144Z,94452.00
2023-03-13T15:08:01.701Z,94452.00
2023-03-13T15:10:41.827Z,94443.53
2023-03-13T15:13:40.710Z,94452.81
2023-03-13T15:16:32.784Z,94452.84
2023-03-13T15:19:19.704Z,94461.28
2023-03-13T15:22:04.709Z,94453.66
2023-03-13T15:25:07.444Z,94446.88
2023-03-13T15:27:50.790Z,94436.78
2023-03-13T15:30:30.733Z,94433.34
2023-03-13T15:33:10.805Z,94432.44
2023-03-13T15:36:04.801Z,94429.97
2023-03-13T15:38:58.734Z,94442.75
2023-03-13T15:41:45.726Z,94431.84
2023-03-13T15:44:18.882Z,94424.28
2023-03-13T15:47:05.769Z,94421.81
2023-03-13T15:49:38.844Z,94421.81
2023-03-13T15:52:28.720Z,94415.97
2023-03-13T15:55:02.514Z,94433.00
2023-03-13T15:57:53.719Z,94434.78
2023-03-13T16:00:28.857Z,94437.25
2023-03-13T16:03:28.716Z,94435.53
2023-03-13T16:06:10.734Z,94433.06
2023-03-13T16:09:06.766Z,94428.06
2023-03-13T16:12:00.722Z,94422.13
2023-03-13T16:14:48.736Z,94442.63
2023-03-13T16:17:25.957Z,94439.22
2023-03-13T16:20:22.733Z,94447.75
2023-03-13T16:23:03.774Z,94451.22
2023-03-13T16:25:52.744Z,94443.56
2023-03-13T16:28:32.748Z,94445.28
2023-03-13T16:31:45.733Z,94442.00
2023-03-13T16:34:32.756Z,94447.13
2023-03-13T16:37:05.849Z,94436.91
2023-03-13T16:39:53.737Z,94437.81
2023-03-13T16:42:26.840Z,94430.16
2023-03-13T16:45:14.750Z,94434.41
2023-03-13T16:47:56.750Z,94432.72
2023-03-13T16:50:52.749Z,94424.19
2023-03-13T16:53:46.809Z,94429.34
2023-03-13T16:56:41.761Z,94421.75
2023-03-13T16:59:24.267Z,94422.63
2023-03-13T17:02:10.823Z,94427.81
2023-03-13T17:04:50.754Z,94424.50
2023-03-13T17:07:44.759Z,94427.91
2023-03-13T17:10:41.753Z,94415.25
2023-03-13T17:13:30.769Z,94417.81
2023-03-13T17:16:03.919Z,94424.63
2023-03-13T17:18:52.754Z,94431.38
2023-03-13T17:21:36.752Z,94426.28
2023-03-13T17:24:23.747Z,94429.75
2023-03-13T17:26:56.853Z,94434.06
2023-03-13T17:29:43.762Z,94410.41
2023-03-13T17:32:25.791Z,94410.41
2023-03-13T17:35:19.815Z,94417.28
2023-03-13T17:38:13.763Z,94417.34
2023-03-13T17:41:07.769Z,94408.16
2023-03-13T17:43:54.758Z,94422.69
2023-03-13T17:47:02.772Z,94418.59
2023-03-13T17:49:50.756Z,94427.19
2023-03-13T17:52:23.896Z,94414.53
2023-03-13T17:55:10.781Z,94417.09
2023-03-13T17:57:43.958Z,94418.81
2023-03-13T18:00:26.777Z,94420.53
2023-03-13T18:03:13.810Z,94415.47
2023-03-13T18:06:07.787Z,94406.97
2023-03-13T18:08:55.765Z,94416.34
2023-03-13T18:11:36.797Z,94419.78
2023-03-13T18:14:23.790Z,94414.63
2023-03-13T18:16:57.533Z,94405.28
2023-03-13T18:19:43.784Z,94401.81
2023-03-13T18:22:29.782Z,94409.38
2023-03-13T18:25:23.796Z,94398.34
2023-03-13T18:28:10.789Z,94402.56
2023-03-13T18:30:50.777Z,94398.31
2023-03-13T18:33:37.790Z,94397.44
2023-03-13T18:36:27.774Z,94394.91
2023-03-13T18:39:14.832Z,94388.19
2023-03-13T18:41:47.919Z,94398.38
2023-03-13T18:44:34.795Z,94389.97
2023-03-13T18:47:15.784Z,94382.34
2023-03-13T18:50:09.827Z,94386.59
2023-03-13T18:53:03.811Z,94375.56
2023-03-13T18:55:50.778Z,94381.50
2023-03-13T18:58:30.803Z,94378.97
2023-03-13T19:01:20.930Z,94368.81
2023-03-13T19:04:01.804Z,94368.81
2023-03-13T19:06:55.815Z,94368.88
2023-03-13T19:09:44.235Z,94357.91
2023-03-13T19:12:19.912Z,94362.97
2023-03-13T19:15:06.813Z,94356.16
2023-03-13T19:17:46.830Z,94351.84
2023-03-13T19:20:40.833Z,94356.91
2023-03-13T19:23:34.839Z,94360.25
2023-03-13T19:26:32.820Z,94346.63
2023-03-13T19:29:12.805Z,94350.88
2023-03-13T19:32:00.899Z,94358.47
2023-03-13T19:34:33.913Z,94363.56
2023-03-13T19:37:22.820Z,94363.56
2023-03-13T19:39:55.964Z,94360.16
2023-03-13T19:42:42.844Z,94349.94
2023-03-13T19:45:21.817Z,94360.16
2023-03-13T19:48:08.808Z,94357.63
2023-03-13T19:50:42.985Z,94353.34
2023-03-13T19:53:29.831Z,94348.28
2023-03-13T19:56:10.813Z,94342.38
2023-03-13T19:59:16.837Z,94336.47
2023-03-13T20:02:03.971Z,94333.16
2023-03-13T20:04:36.959Z,94325.47
2023-03-13T20:07:23.821Z,94305.06
2023-03-13T20:09:56.953Z,94308.44
2023-03-13T20:12:43.821Z,94297.44
2023-03-13T20:15:18.066Z,94302.50
2023-03-13T20:18:04.826Z,94295.72
2023-03-13T20:20:37.940Z,94283.88
2023-03-13T20:23:24.851Z,94281.34
2023-03-13T20:26:04.852Z,94285.56
2023-03-13T20:28:53.852Z,94284.78
2023-03-13T20:31:36.892Z,94287.31
2023-03-13T20:34:30.834Z,94294.97
2023-03-13T20:37:17.853Z,94297.53
2023-03-13T20:39:57.851Z,94303.50
2023-03-13T20:42:45.838Z,94301.06
2023-03-13T20:45:18.953Z,94308.63
2023-03-13T20:48:05.852Z,94301.06
2023-03-13T20:50:39.256Z,94303.59
2023-03-13T20:53:33.824Z,94302.81
2023-03-13T20:56:27.840Z,94301.94
2023-03-13T20:59:14.849Z,94304.44
2023-03-13T21:01:54.881Z,94310.41
2023-03-13T21:04:48.860Z,94296.06
2023-03-13T21:07:35.856Z,94313.06
2023-03-13T21:10:09.952Z,94292.78
2023-03-13T21:12:56.861Z,94285.22
2023-03-13T21:15:29.971Z,94280.97
2023-03-13T21:18:16.866Z,94274.22
2023-03-13T21:20:49.971Z,94286.06
2023-03-13T21:23:37.869Z,94273.41
2023-03-13T21:26:11.942Z,94264.13
2023-03-13T21:28:59.869Z,94259.03
2023-03-13T21:31:39.916Z,94262.44
2023-03-13T21:34:26.883Z,94258.28
2023-03-13T21:37:06.852Z,94243.91
2023-03-13T21:39:56.885Z,94243.91
2023-03-13T21:42:36.866Z,94253.28
2023-03-13T21:45:23.879Z,94254.19
2023-03-13T21:48:03.892Z,94245.75
2023-03-13T21:50:50.870Z,94249.19
2023-03-13T21:53:23.980Z,94250.09
2023-03-13T21:56:10.863Z,94242.50
2023-03-13T21:58:43.974Z,94242.56
2023-03-13T22:01:30.883Z,94243.41
2023-03-13T22:04:03.949Z,94246.84
2023-03-13T22:06:50.887Z,94246.03
2023-03-13T22:09:30.879Z,94241.81
2023-03-13T22:12:17.896Z,94238.47
2023-03-13T22:14:57.956Z,94238.53
2023-03-13T22:17:51.901Z,94248.78
2023-03-13T22:20:45.886Z,94252.22
2023-03-13T22:23:32.875Z,94253.03
2023-03-13T22:26:12.913Z,94246.31
2023-03-13T22:29:06.870Z,94234.47
2023-03-13T22:31:53.883Z,94244.69
2023-03-13T22:34:26.969Z,94237.06
2023-03-13T22:37:13.884Z,94227.78
2023-03-13T22:39:46.976Z,94225.25
2023-03-13T22:42:33.885Z,94208.34
2023-03-13T22:45:07.000Z,94209.19
2023-03-13T22:47:53.905Z,94204.88
2023-03-13T22:50:28.026Z,94205.75
2023-03-13T22:53:14.895Z,94197.28
2023-03-13T22:55:54.898Z,94191.38
2023-03-13T22:58:48.905Z,94198.16
2023-03-13T23:01:35.925Z,94202.44
2023-03-13T23:04:09.013Z,94205.88
2023-03-13T23:06:55.921Z,94189.81
2023-03-13T23:09:28.993Z,94191.47
2023-03-13T23:12:15.909Z,94193.16
2023-03-13T23:14:48.993Z,94186.38
2023-03-13T23:17:40.933Z,94180.47
2023-03-13T23:20:16.079Z,94194.88
2023-03-13T23:23:02.905Z,94185.56
2023-03-13T23:25:36.012Z,94183.00
2023-03-13T23:28:22.901Z,94183.81
2023-03-13T23:30:56.035Z,94178.75
2023-03-13T23:33:42.915Z,94179.72
2023-03-13T23:36:19.008Z,94180.63
2023-03-13T23:39:05.912Z,94173.06
2023-03-13T23:41:45.922Z,94183.16
2023-03-13T23:44:32.913Z,94173.88
2023-03-13T23:47:06.050Z,94173.03
2023-03-13T23:49:52.915Z,94160.38
2023-03-13T23:52:26.007Z,94163.72
2023-03-13T23:55:13.916Z,94156.94
2023-03-13T23:57:47.031Z,94159.44
